Time;durP1;ratioP1;P1;durP2;ratioP2;P2;SDS_P1;SDS_P2;PMS_P1;PMS_P2;Temp;Humidity;BMP_temperature;BMP_pressure;BME280_temperature;BME280_humidity;BME280_pressure;Samples;Min_cycle;Max_cycle;Signal;HPM_P1;HPM_P2
2021/05/09 00:01:27;;;;;;;3.65;1.30;;;16.40;99.90;;;;;;5020606;28;20426;-84
2021/05/09 00:03:55;;;;;;;4.05;1.85;;;16.40;99.90;;;;;;5002448;28;20397;-84
2021/05/09 00:06:23;;;;;;;2.97;1.42;;;16.50;99.90;;;;;;5003849;28;20771;-85
2021/05/09 00:08:51;;;;;;;3.00;1.30;;;16.60;99.90;;;;;;5005249;28;20429;-85
2021/05/09 00:11:18;;;;;;;3.13;1.52;;;16.70;99.90;;;;;;5005608;28;20479;-85
2021/05/09 00:13:45;;;;;;;3.60;1.33;;;16.80;99.90;;;;;;5019166;28;20971;-88
2021/05/09 00:16:13;;;;;;;3.50;1.67;;;16.80;99.90;;;;;;5020860;28;20499;-86
2021/05/09 00:18:40;;;;;;;4.13;1.60;;;16.80;99.90;;;;;;5018596;28;20417;-86
2021/05/09 00:21:07;;;;;;;3.28;1.60;;;16.80;99.90;;;;;;5002610;28;21061;-85
2021/05/09 00:23:34;;;;;;;2.70;1.80;;;16.70;99.90;;;;;;5024733;28;20397;-84
2021/05/09 00:26:02;;;;;;;3.35;1.80;;;16.70;99.90;;;;;;5020188;28;20395;-85
2021/05/09 00:28:29;;;;;;;5.35;1.92;;;16.60;99.90;;;;;;4998529;28;20901;-84
2021/05/09 00:30:56;;;;;;;2.97;1.58;;;16.60;99.90;;;;;;5014896;28;20411;-83
2021/05/09 00:33:23;;;;;;;2.63;1.50;;;16.60;99.90;;;;;;5024661;28;20401;-87
2021/05/09 00:35:50;;;;;;;4.22;1.60;;;16.50;99.90;;;;;;5003594;28;20404;-81
2021/05/09 00:38:17;;;;;;;5.75;1.80;;;16.50;99.90;;;;;;5024662;28;20401;-85
2021/05/09 00:40:44;;;;;;;2.97;1.77;;;16.50;99.90;;;;;;5022671;28;20398;-84
2021/05/09 00:43:11;;;;;;;3.28;1.52;;;16.40;99.90;;;;;;5005483;28;20770;-87
2021/05/09 00:45:39;;;;;;;2.23;1.50;;;16.40;99.90;;;;;;5023245;28;20459;-87
2021/05/09 00:48:10;;;;;;;3.53;1.48;;;16.40;99.90;;;;;;5008687;28;20393;-88
2021/05/09 00:50:38;;;;;;;4.65;1.55;;;16.40;99.90;;;;;;5021237;28;20453;-85
2021/05/09 00:53:09;;;;;;;6.40;1.60;;;16.40;99.90;;;;;;5024556;28;20424;-84
2021/05/09 00:55:41;;;;;;;3.92;1.33;;;16.40;99.90;;;;;;5004768;28;21269;-87
2021/05/09 00:58:10;;;;;;;2.15;1.30;;;16.40;99.90;;;;;;5022631;28;21334;-89
2021/05/09 01:00:37;;;;;;;2.45;1.42;;;16.40;99.90;;;;;;5006510;28;20437;-89
2021/05/09 01:03:07;;;;;;;2.80;1.40;;;16.40;99.90;;;;;;5006147;28;20398;-86
2021/05/09 01:05:35;;;;;;;2.40;1.50;;;16.50;99.90;;;;;;5006483;28;20940;-88
2021/05/09 01:08:05;;;;;;;2.72;1.50;;;16.50;99.90;;;;;;5022714;28;20397;-87
2021/05/09 01:10:32;;;;;;;2.63;1.52;;;16.50;99.90;;;;;;5004614;28;20886;-86
2021/05/09 01:12:59;;;;;;;3.05;1.30;;;16.50;99.90;;;;;;5010270;28;20391;-86
2021/05/09 01:15:28;;;;;;;1.50;1.40;;;16.60;99.90;;;;;;5023082;28;20436;-89
2021/05/09 01:17:55;;;;;;;2.90;1.60;;;16.60;99.90;;;;;;5014572;28;20391;-89
2021/05/09 01:20:22;;;;;;;2.75;1.40;;;16.60;99.90;;;;;;5022360;28;20401;-86
2021/05/09 01:22:49;;;;;;;3.70;1.52;;;16.70;99.90;;;;;;5014040;28;20396;-85
2021/05/09 01:25:16;;;;;;;3.03;1.55;;;16.70;99.90;;;;;;5007474;28;20406;-88
2021/05/09 01:27:43;;;;;;;4.35;1.60;;;16.70;99.90;;;;;;4996938;28;20383;-89
2021/05/09 01:30:12;;;;;;;2.10;1.60;;;16.80;99.90;;;;;;5014155;28;20387;-89
2021/05/09 01:32:39;;;;;;;2.55;1.63;;;16.80;99.90;;;;;;5001812;28;20377;-87
2021/05/09 01:35:07;;;;;;;2.63;1.30;;;16.80;99.90;;;;;;5016376;28;20732;-87
2021/05/09 01:37:34;;;;;;;2.95;1.40;;;16.90;99.90;;;;;;4996354;28;20381;-87
2021/05/09 01:40:01;;;;;;;4.37;2.07;;;16.90;99.90;;;;;;5014372;28;20450;-90
2021/05/09 01:42:28;;;;;;;2.83;1.67;;;16.90;99.90;;;;;;5032439;28;20924;-89
2021/05/09 01:44:56;;;;;;;5.00;1.47;;;17.00;99.90;;;;;;5022734;28;20398;-88
2021/05/09 01:47:24;;;;;;;4.00;1.70;;;17.00;99.90;;;;;;5021246;28;20382;-88
2021/05/09 01:49:52;;;;;;;2.20;1.55;;;17.00;99.90;;;;;;5015218;28;20445;-89
2021/05/09 01:52:20;;;;;;;3.60;1.85;;;17.10;99.90;;;;;;5014295;28;20371;-88
2021/05/09 01:54:47;;;;;;;3.20;1.40;;;17.10;99.90;;;;;;5000207;28;20896;-86
2021/05/09 01:57:14;;;;;;;2.75;1.42;;;17.10;99.90;;;;;;5015083;28;20467;-90
2021/05/09 01:59:42;;;;;;;4.30;1.50;;;17.20;99.90;;;;;;5033261;28;20885;-91
2021/05/09 02:02:09;;;;;;;3.85;1.40;;;17.20;99.90;;;;;;5025135;28;20399;-89
2021/05/09 02:04:36;;;;;;;2.95;1.38;;;17.20;99.90;;;;;;5016670;28;20484;-90
2021/05/09 02:07:03;;;;;;;4.15;1.45;;;17.20;99.90;;;;;;5031088;28;20400;-92
2021/05/09 02:09:30;;;;;;;2.70;1.70;;;17.20;99.90;;;;;;5017014;28;20384;-90
2021/05/09 02:11:57;;;;;;;3.67;1.60;;;17.20;99.90;;;;;;5013045;28;20393;-93
2021/05/09 02:14:24;;;;;;;3.20;1.80;;;17.20;99.90;;;;;;5034224;28;20484;-89
2021/05/09 02:16:51;;;;;;;3.00;1.70;;;17.20;99.90;;;;;;5016536;28;20378;-89
2021/05/09 02:19:18;;;;;;;3.00;1.77;;;17.20;99.90;;;;;;5016434;28;20413;-88
2021/05/09 02:21:45;;;;;;;3.35;1.55;;;17.20;99.90;;;;;;5035741;28;20409;-91
2021/05/09 02:24:12;;;;;;;4.00;1.70;;;17.20;99.90;;;;;;5015131;28;20389;-88
2021/05/09 02:26:39;;;;;;;4.97;1.42;;;17.20;99.90;;;;;;5030158;28;20407;-89
2021/05/09 02:29:06;;;;;;;3.47;1.50;;;17.30;99.90;;;;;;5007799;28;20395;-88
2021/05/09 02:31:33;;;;;;;3.88;1.40;;;17.30;99.90;;;;;;5027456;28;20858;-86
2021/05/09 02:34:00;;;;;;;3.58;1.48;;;17.40;99.90;;;;;;5023482;28;20391;-84
2021/05/09 02:36:27;;;;;;;1.98;1.58;;;17.40;99.90;;;;;;4999984;28;20382;-84
2021/05/09 02:38:54;;;;;;;4.25;1.85;;;17.40;99.90;;;;;;5030257;28;20401;-85
2021/05/09 02:41:21;;;;;;;6.53;2.00;;;17.40;99.90;;;;;;5032394;28;20404;-87
2021/05/09 02:43:49;;;;;;;4.35;1.90;;;17.40;99.90;;;;;;5030077;28;20383;-86
2021/05/09 02:46:16;;;;;;;3.28;1.70;;;17.40;99.90;;;;;;5021417;28;20391;-87
2021/05/09 02:48:43;;;;;;;2.40;1.77;;;17.40;99.90;;;;;;5016062;28;21011;-87
2021/05/09 02:51:10;;;;;;;3.95;1.90;;;17.40;99.90;;;;;;5013918;28;20388;-87
2021/05/09 02:53:37;;;;;;;3.85;1.88;;;17.40;99.90;;;;;;5008473;28;20408;-88
2021/05/09 02:56:05;;;;;;;4.93;2.17;;;17.30;99.90;;;;;;5029551;28;20896;-87
2021/05/09 02:58:32;;;;;;;4.03;1.92;;;17.30;99.90;;;;;;5031203;28;20401;-87
2021/05/09 03:00:59;;;;;;;2.75;1.83;;;17.30;99.90;;;;;;5015493;28;20574;-88
2021/05/09 03:03:26;;;;;;;5.88;2.00;;;17.30;99.90;;;;;;5033647;28;20705;-84
2021/05/09 03:05:53;;;;;;;3.10;1.90;;;17.30;99.90;;;;;;5012935;28;20465;-84
2021/05/09 03:08:20;;;;;;;5.60;2.28;;;17.30;99.90;;;;;;5014721;28;20408;-89
2021/05/09 03:10:47;;;;;;;4.25;2.17;;;17.30;99.90;;;;;;5004115;28;20397;-85
2021/05/09 03:13:14;;;;;;;4.60;1.90;;;17.30;99.90;;;;;;5020409;28;20466;-86
2021/05/09 03:15:41;;;;;;;4.30;2.17;;;17.20;99.90;;;;;;5022849;28;20472;-86
2021/05/09 03:18:08;;;;;;;3.47;1.90;;;17.20;99.90;;;;;;5013048;28;20392;-86
2021/05/09 03:20:37;;;;;;;4.28;1.98;;;17.20;99.90;;;;;;5012299;28;20403;-85
2021/05/09 03:23:05;;;;;;;5.43;2.17;;;17.20;99.90;;;;;;5005676;28;20390;-86
2021/05/09 03:25:33;;;;;;;5.00;2.03;;;17.20;99.90;;;;;;5013489;28;20405;-87
2021/05/09 03:28:00;;;;;;;5.00;2.10;;;17.20;99.90;;;;;;5001524;28;20886;-86
2021/05/09 03:30:27;;;;;;;5.70;2.10;;;17.20;99.90;;;;;;5022939;28;20385;-87
2021/05/09 03:32:54;;;;;;;3.50;2.17;;;17.20;99.90;;;;;;5012226;28;20388;-86
2021/05/09 03:35:22;;;;;;;4.03;1.95;;;17.30;99.90;;;;;;5023406;28;20495;-87
2021/05/09 03:37:49;;;;;;;4.40;2.15;;;17.40;99.90;;;;;;5012531;28;20386;-89
2021/05/09 03:40:17;;;;;;;3.60;2.08;;;17.40;99.90;;;;;;5008029;28;20899;-88
2021/05/09 03:42:44;;;;;;;5.07;1.83;;;17.40;99.90;;;;;;5001588;28;20385;-87
2021/05/09 03:45:11;;;;;;;3.72;1.95;;;17.40;99.90;;;;;;5019575;28;20745;-85
2021/05/09 03:47:38;;;;;;;4.43;2.17;;;17.50;99.90;;;;;;5017651;28;20386;-87
2021/05/09 03:50:06;;;;;;;4.07;1.73;;;17.50;99.90;;;;;;5023318;28;20396;-85
2021/05/09 03:52:33;;;;;;;2.47;2.15;;;17.60;99.90;;;;;;5017331;28;20411;-85
2021/05/09 03:55:00;;;;;;;4.80;2.15;;;17.60;99.90;;;;;;5015247;28;20753;-87
2021/05/09 03:57:27;;;;;;;6.18;2.45;;;17.60;99.90;;;;;;5022404;28;20395;-84
2021/05/09 03:59:54;;;;;;;2.50;1.85;;;17.70;99.90;;;;;;5023448;28;20436;-84
2021/05/09 04:02:21;;;;;;;5.93;2.30;;;17.70;99.90;;;;;;5020142;28;20664;-86
2021/05/09 04:04:48;;;;;;;5.07;2.20;;;17.70;99.90;;;;;;5012225;28;20401;-84
2021/05/09 04:07:15;;;;;;;4.68;1.77;;;17.70;99.90;;;;;;5026575;28;20413;-86
2021/05/09 04:09:42;;;;;;;3.75;2.20;;;17.70;99.90;;;;;;5021154;28;20401;-88
2021/05/09 04:12:10;;;;;;;4.63;2.20;;;17.70;99.90;;;;;;5006555;28;20402;-86
2021/05/09 04:14:37;;;;;;;4.63;2.17;;;17.60;99.90;;;;;;5010431;28;20416;-87
2021/05/09 04:17:04;;;;;;;4.27;2.53;;;17.50;99.90;;;;;;5010073;28;20435;-87
2021/05/09 04:19:31;;;;;;;4.95;2.25;;;17.40;99.90;;;;;;5028703;28;20413;-86
2021/05/09 04:21:58;;;;;;;3.25;2.20;;;17.40;99.90;;;;;;5021950;28;20395;-87
2021/05/09 04:24:25;;;;;;;3.38;2.25;;;17.40;99.90;;;;;;5025755;28;20399;-86
2021/05/09 04:26:52;;;;;;;2.35;2.15;;;17.30;99.90;;;;;;5025644;28;20853;-87
2021/05/09 04:29:19;;;;;;;5.28;2.60;;;17.30;99.90;;;;;;5005409;28;20488;-84
2021/05/09 04:31:46;;;;;;;5.90;2.47;;;17.30;99.90;;;;;;5004925;28;20397;-86
2021/05/09 04:34:13;;;;;;;3.90;2.30;;;17.30;99.90;;;;;;5001511;28;20629;-89
2021/05/09 04:36:40;;;;;;;4.07;2.03;;;17.20;99.90;;;;;;5010309;28;20394;-87
2021/05/09 04:39:07;;;;;;;5.50;2.13;;;17.20;99.90;;;;;;4996578;28;20413;-84
2021/05/09 04:41:34;;;;;;;3.88;2.17;;;17.20;99.90;;;;;;5006575;28;20395;-86
2021/05/09 04:44:01;;;;;;;3.47;1.92;;;17.20;99.90;;;;;;5016948;28;20890;-85
2021/05/09 04:46:28;;;;;;;2.88;2.03;;;17.30;99.90;;;;;;5020688;28;20411;-85
2021/05/09 04:48:55;;;;;;;4.20;1.90;;;17.30;99.90;;;;;;5005548;28;20413;-83
2021/05/09 04:51:22;;;;;;;4.63;2.33;;;17.40;99.90;;;;;;5024893;28;20452;-86
2021/05/09 04:53:49;;;;;;;4.45;2.33;;;17.30;99.90;;;;;;5024750;28;20385;-83
2021/05/09 04:56:17;;;;;;;4.50;2.25;;;17.30;99.90;;;;;;5006614;28;20397;-84
2021/05/09 04:58:45;;;;;;;3.63;2.00;;;17.30;99.90;;;;;;5025838;28;20804;-86
2021/05/09 05:01:13;;;;;;;4.32;2.05;;;17.30;99.90;;;;;;5019163;28;21065;-87
2021/05/09 05:03:41;;;;;;;3.07;2.10;;;17.20;99.90;;;;;;5001153;28;20480;-83
2021/05/09 05:06:08;;;;;;;3.13;2.00;;;17.30;99.90;;;;;;5013209;28;20395;-85
2021/05/09 05:08:35;;;;;;;2.95;1.95;;;17.30;99.90;;;;;;5009176;28;20742;-85
2021/05/09 05:11:07;;;;;;;4.85;2.38;;;17.40;99.90;;;;;;5009080;28;20410;-84
2021/05/09 05:13:35;;;;;;;3.97;1.90;;;17.40;99.90;;;;;;5019268;28;20443;-86
2021/05/09 05:16:05;;;;;;;5.07;2.50;;;17.50;99.90;;;;;;5011581;28;20909;-85
2021/05/09 05:18:32;;;;;;;3.72;2.53;;;17.50;99.90;;;;;;5008917;28;20844;-84
2021/05/09 05:21:04;;;;;;;5.07;2.60;;;17.50;99.90;;;;;;5009428;28;20463;-84
2021/05/09 05:23:34;;;;;;;6.10;2.58;;;17.60;99.90;;;;;;5008997;28;20882;-84
2021/05/09 05:26:02;;;;;;;3.15;2.40;;;17.50;99.90;;;;;;5023507;28;20405;-84
2021/05/09 05:28:29;;;;;;;4.72;2.42;;;17.50;99.90;;;;;;5028904;28;20443;-84
2021/05/09 05:30:56;;;;;;;3.88;2.58;;;17.50;99.90;;;;;;5029343;28;20412;-85
2021/05/09 05:33:32;;;;;;;5.15;2.80;;;17.50;99.90;;;;;;5028857;28;20370;-85
2021/05/09 05:36:00;;;;;;;7.68;2.50;;;17.60;99.90;;;;;;5028795;28;20443;-83
2021/05/09 05:38:27;;;;;;;6.80;2.40;;;17.50;99.90;;;;;;5027783;28;20397;-84
2021/05/09 05:40:56;;;;;;;5.82;2.40;;;17.50;99.90;;;;;;5028705;28;20446;-85
2021/05/09 05:43:24;;;;;;;4.82;2.33;;;17.50;99.90;;;;;;5028741;28;20374;-83
2021/05/09 05:45:53;;;;;;;3.72;2.20;;;17.50;99.90;;;;;;5012829;28;20421;-84
2021/05/09 05:48:21;;;;;;;4.30;2.05;;;17.50;99.90;;;;;;5013875;28;20470;-84
2021/05/09 05:50:49;;;;;;;2.10;1.83;;;17.40;99.90;;;;;;5021893;28;20405;-87
2021/05/09 05:53:26;;;;;;;4.35;2.15;;;17.30;99.90;;;;;;5021537;28;20911;-84
2021/05/09 05:55:54;;;;;;;2.65;1.98;;;17.20;99.90;;;;;;5022663;28;20389;-85
2021/05/09 05:58:21;;;;;;;4.75;2.33;;;17.10;99.90;;;;;;5024563;28;20398;-85
2021/05/09 06:01:00;;;;;;;4.50;2.40;;;17.00;99.90;;;;;;5019927;28;20412;-85
2021/05/09 06:03:29;;;;;;;4.53;2.40;;;17.00;99.90;;;;;;5025209;28;20393;-84
2021/05/09 06:05:57;;;;;;;5.30;2.30;;;17.10;99.90;;;;;;5031301;28;20405;-85
2021/05/09 06:08:24;;;;;;;4.25;3.00;;;17.00;99.90;;;;;;5025578;28;20432;-84
2021/05/09 06:10:52;;;;;;;7.38;3.10;;;16.90;99.90;;;;;;5027027;28;20839;-84
2021/05/09 06:13:25;;;;;;;3.15;2.83;;;16.90;99.90;;;;;;5028412;28;20435;-85
2021/05/09 06:15:52;;;;;;;7.78;3.60;;;16.80;99.90;;;;;;5013412;28;20457;-85
2021/05/09 06:18:19;;;;;;;5.15;3.65;;;16.80;99.90;;;;;;5028098;28;20755;-85
2021/05/09 06:20:46;;;;;;;40.13;29.02;;;16.80;99.90;;;;;;5029478;28;20484;-84
2021/05/09 06:23:13;;;;;;;28.02;22.55;;;16.80;99.90;;;;;;5028255;28;20455;-84
2021/05/09 06:25:40;;;;;;;27.67;21.10;;;16.80;99.90;;;;;;5025014;28;20408;-84
2021/05/09 06:28:07;;;;;;;43.90;32.75;;;16.80;99.90;;;;;;5022796;28;20412;-83
2021/05/09 06:30:33;;;;;;;46.13;35.67;;;16.80;99.90;;;;;;5014076;28;20439;-84
2021/05/09 06:33:00;;;;;;;47.58;33.65;;;16.70;99.90;;;;;;5019970;28;20756;-85
2021/05/09 06:35:27;;;;;;;35.30;27.45;;;16.70;99.90;;;;;;5022679;28;20397;-84
2021/05/09 06:37:55;;;;;;;24.27;19.47;;;16.70;99.90;;;;;;5027453;28;20472;-84
2021/05/09 06:40:23;;;;;;;11.15;8.98;;;16.70;99.90;;;;;;5012477;28;20413;-84
2021/05/09 06:43:01;;;;;;;11.20;9.30;;;16.70;99.90;;;;;;5029285;28;20947;-83
2021/05/09 06:45:29;;;;;;;9.23;7.22;;;16.70;99.90;;;;;;5015126;28;20399;-83
2021/05/09 06:47:58;;;;;;;8.45;5.22;;;16.60;99.90;;;;;;5020984;28;20385;-84
2021/05/09 06:50:27;;;;;;;7.93;5.05;;;16.60;99.90;;;;;;5002954;28;20410;-84
2021/05/09 06:52:54;;;;;;;6.97;4.30;;;16.60;99.90;;;;;;5028771;28;20727;-84
2021/05/09 06:55:21;;;;;;;6.25;4.60;;;16.70;99.90;;;;;;5024579;28;20476;-85
2021/05/09 06:57:48;;;;;;;8.93;4.40;;;16.60;99.90;;;;;;5009644;28;20531;-85
2021/05/09 07:00:17;;;;;;;7.68;4.10;;;16.70;99.90;;;;;;5026477;28;20432;-85
2021/05/09 07:02:45;;;;;;;7.80;3.90;;;16.70;99.90;;;;;;5004212;28;20393;-86
2021/05/09 07:05:12;;;;;;;6.82;3.45;;;16.70;99.90;;;;;;5030290;28;20397;-83
2021/05/09 07:07:58;;;;;;;4.00;3.05;;;16.60;99.90;;;;;;5015418;28;20397;-85
2021/05/09 07:10:27;;;;;;;4.35;2.60;;;16.60;99.90;;;;;;5026074;28;20444;-84
2021/05/09 07:12:55;;;;;;;4.82;3.05;;;16.60;99.90;;;;;;5022710;28;20408;-85
2021/05/09 07:15:26;;;;;;;4.27;3.03;;;16.50;99.90;;;;;;4986380;28;20642;-85
2021/05/09 07:18:08;;;;;;;4.70;3.33;;;16.50;99.90;;;;;;4991884;28;20385;-85
2021/05/09 07:20:39;;;;;;;8.73;4.45;;;16.50;99.90;;;;;;4987614;28;20526;-85
2021/05/09 07:23:07;;;;;;;7.35;5.53;;;16.50;99.90;;;;;;5002534;28;20400;-84
2021/05/09 07:25:35;;;;;;;10.20;8.15;;;16.50;99.90;;;;;;5008500;28;20390;-84
2021/05/09 07:28:05;;;;;;;15.25;8.85;;;16.40;99.90;;;;;;5001927;28;20468;-85
2021/05/09 07:30:33;;;;;;;12.05;8.38;;;16.40;99.90;;;;;;5007560;28;20387;-84
2021/05/09 07:33:00;;;;;;;9.50;8.50;;;16.30;99.90;;;;;;4992052;28;20435;-83
2021/05/09 07:35:28;;;;;;;15.32;9.90;;;16.30;99.90;;;;;;4975114;28;20384;-84
2021/05/09 07:37:55;;;;;;;12.73;9.05;;;16.30;99.90;;;;;;5000615;28;20396;-84
2021/05/09 07:40:23;;;;;;;11.75;9.30;;;16.20;99.90;;;;;;4972858;28;20483;-84
2021/05/09 07:42:50;;;;;;;14.68;10.57;;;16.20;99.90;;;;;;4998856;28;20469;-89
2021/05/09 07:45:20;;;;;;;12.52;9.35;;;16.20;99.90;;;;;;4986454;28;20490;-86
2021/05/09 07:47:47;;;;;;;13.57;10.50;;;16.20;99.90;;;;;;4998723;28;20395;-88
2021/05/09 07:50:15;;;;;;;13.33;10.13;;;16.20;99.90;;;;;;5005690;28;20491;-86
2021/05/09 07:52:47;;;;;;;7.75;6.63;;;16.20;99.90;;;;;;4984263;28;20402;-85
2021/05/09 07:55:15;;;;;;;8.43;6.72;;;16.30;99.90;;;;;;5005293;28;20907;-85
2021/05/09 07:57:44;;;;;;;6.97;5.27;;;16.30;99.90;;;;;;5004408;28;20486;-89
2021/05/09 08:00:14;;;;;;;12.33;6.60;;;16.30;99.90;;;;;;4976670;28;20508;-84
2021/05/09 08:02:44;;;;;;;10.98;8.93;;;16.30;99.90;;;;;;4984877;28;20400;-87
2021/05/09 08:05:13;;;;;;;10.60;9.43;;;16.20;99.90;;;;;;4982230;28;20458;-86
2021/05/09 08:07:53;;;;;;;8.63;6.60;;;16.30;99.90;;;;;;5001364;28;20389;-85
2021/05/09 08:10:21;;;;;;;8.68;6.65;;;16.20;99.90;;;;;;4995159;28;20522;-85
2021/05/09 08:12:49;;;;;;;6.05;5.28;;;16.20;99.90;;;;;;5003483;28;20401;-86
2021/05/09 08:15:18;;;;;;;8.05;5.85;;;16.20;99.90;;;;;;5017718;28;20439;-86
2021/05/09 08:17:46;;;;;;;9.60;6.30;;;16.20;99.90;;;;;;5003197;28;20400;-88
2021/05/09 08:20:14;;;;;;;6.80;4.47;;;16.20;99.90;;;;;;5008711;28;20415;-87
2021/05/09 08:22:41;;;;;;;5.80;4.43;;;16.20;99.90;;;;;;5026063;28;20891;-88
2021/05/09 08:25:09;;;;;;;4.82;3.55;;;16.20;99.90;;;;;;5008666;28;20397;-87
2021/05/09 08:27:36;;;;;;;5.25;3.88;;;16.10;99.90;;;;;;5008369;28;20405;-85
2021/05/09 08:30:04;;;;;;;4.47;2.70;;;16.10;99.90;;;;;;5022663;28;20394;-86
2021/05/09 08:32:31;;;;;;;7.67;3.30;;;16.00;99.90;;;;;;5024920;28;20385;-86
2021/05/09 08:34:59;;;;;;;5.25;3.20;;;16.00;99.90;;;;;;5007755;28;20409;-86
2021/05/09 08:37:28;;;;;;;3.20;2.90;;;15.90;99.90;;;;;;5027203;28;20908;-86
2021/05/09 08:39:55;;;;;;;3.97;2.58;;;15.90;99.90;;;;;;5022635;28;20867;-87
2021/05/09 08:42:22;;;;;;;5.95;3.17;;;15.90;99.90;;;;;;5017004;28;20405;-87
2021/05/09 08:44:51;;;;;;;2.95;2.47;;;15.90;99.90;;;;;;5023163;28;20414;-85
2021/05/09 08:47:22;;;;;;;5.45;2.75;;;15.90;99.90;;;;;;5018475;28;21124;-84
2021/05/09 08:50:14;;;;;;;;;;;;;;;;;;;;;
2021/05/09 08:52:43;;;;;;;6.30;4.18;;;15.80;99.90;;;;;;5025196;28;20853;-85
2021/05/09 08:55:13;;;;;;;6.60;4.47;;;15.70;99.90;;;;;;5024346;28;20381;-85
2021/05/09 08:57:41;;;;;;;5.30;3.40;;;15.70;99.90;;;;;;5010671;28;20401;-85
2021/05/09 09:00:14;;;;;;;6.00;3.30;;;15.70;99.90;;;;;;5017238;28;20494;-85
2021/05/09 09:02:42;;;;;;;6.73;2.70;;;15.70;99.90;;;;;;5009657;28;20459;-84
2021/05/09 09:05:10;;;;;;;5.57;3.40;;;15.70;99.90;;;;;;5017805;28;20387;-86
2021/05/09 09:08:03;;;;;;;5.65;3.90;;;15.60;99.90;;;;;;5009101;28;20405;-83
2021/05/09 09:10:36;;;;;;;6.30;4.22;;;15.60;99.90;;;;;;5015863;28;20745;-86
2021/05/09 09:13:19;;;;;;;5.20;3.50;;;15.60;99.90;;;;;;5029222;28;20397;-85
2021/05/09 09:16:00;;;;;;;6.07;3.93;;;15.60;99.90;;;;;;5009459;28;20467;-86
2021/05/09 09:18:41;;;;;;;4.57;3.25;;;15.60;99.90;;;;;;5026858;28;20385;-86
2021/05/09 09:21:29;;;;;;;5.28;3.47;;;15.60;99.90;;;;;;5020475;28;20418;-84
2021/05/09 09:24:04;;;;;;;4.13;2.70;;;15.50;99.90;;;;;;5005176;28;20989;-88
2021/05/09 09:26:32;;;;;;;5.82;2.83;;;15.50;99.90;;;;;;5003927;28;20424;-88
2021/05/09 09:29:17;;;;;;;4.97;3.13;;;15.50;99.90;;;;;;5015072;28;20387;-88
2021/05/09 09:31:46;;;;;;;4.32;2.75;;;15.50;99.90;;;;;;5013952;28;20387;-88
2021/05/09 09:34:14;;;;;;;3.20;2.60;;;15.40;99.90;;;;;;5004553;28;20397;-86
2021/05/09 09:36:41;;;;;;;4.55;2.60;;;15.50;99.90;;;;;;5000305;28;20394;-87
2021/05/09 09:39:10;;;;;;;5.50;2.53;;;15.50;99.90;;;;;;5011685;28;20924;-86
2021/05/09 09:41:48;;;;;;;3.95;2.45;;;15.50;99.90;;;;;;5004155;28;20402;-88
2021/05/09 09:44:16;;;;;;;2.60;2.40;;;15.50;99.90;;;;;;4999020;28;20414;-85
2021/05/09 09:46:52;;;;;;;3.88;2.55;;;15.50;99.90;;;;;;5030914;28;20869;-87
2021/05/09 09:49:22;;;;;;;4.70;2.38;;;15.50;99.90;;;;;;5004064;28;20761;-87
2021/05/09 09:51:59;;;;;;;4.35;2.83;;;15.60;99.90;;;;;;5032402;28;20481;-87
2021/05/09 09:54:46;;;;;;;6.07;2.95;;;15.60;99.90;;;;;;5015803;28;21154;-87
2021/05/09 09:57:33;;;;;;;3.83;2.50;;;15.70;99.90;;;;;;5028183;28;20436;-87
2021/05/09 10:00:30;;;;;;;3.67;2.65;;;15.70;99.90;;;;;;5008927;28;20472;-87
2021/05/09 10:02:57;;;;;;;3.08;2.40;;;15.70;99.90;;;;;;5016088;28;20405;-87
2021/05/09 10:05:24;;;;;;;6.28;2.80;;;15.60;99.90;;;;;;5017544;28;20824;-88
2021/05/09 10:07:51;;;;;;;2.63;2.17;;;15.60;99.90;;;;;;5033859;28;20373;-87
2021/05/09 10:10:19;;;;;;;3.50;2.65;;;15.60;99.90;;;;;;5018850;28;20396;-87
2021/05/09 10:12:46;;;;;;;3.97;2.60;;;15.50;99.90;;;;;;5035539;28;20390;-88
2021/05/09 10:15:14;;;;;;;5.68;2.78;;;15.60;99.90;;;;;;5033352;28;20448;-87
2021/05/09 10:17:46;;;;;;;3.03;2.53;;;15.50;99.90;;;;;;5015278;28;20428;-87
2021/05/09 10:20:14;;;;;;;4.47;3.33;;;15.50;99.90;;;;;;5006344;28;20931;-86
2021/05/09 10:22:40;;;;;;;3.58;2.42;;;15.50;99.90;;;;;;4996812;28;20397;-86
2021/05/09 10:25:08;;;;;;;4.72;2.47;;;15.50;99.90;;;;;;5026902;28;20409;-85
2021/05/09 10:27:40;;;;;;;2.75;2.25;;;15.50;99.90;;;;;;5027841;28;20402;-88
2021/05/09 10:30:09;;;;;;;2.55;2.30;;;15.50;99.90;;;;;;5028686;28;20442;-85
2021/05/09 10:32:36;;;;;;;4.38;2.33;;;15.50;99.90;;;;;;5030747;28;20389;-85
2021/05/09 10:38:22;;;;;;;3.10;2.42;;;15.50;99.90;;;;;;5025828;28;20378;-83
2021/05/09 10:40:47;;;;;;;2.80;2.33;;;15.50;99.90;;;;;;5023783;28;20405;-87
2021/05/09 10:43:16;;;;;;;5.07;2.50;;;15.50;99.90;;;;;;5026379;28;20406;-87
2021/05/09 10:45:43;;;;;;;6.35;2.78;;;15.50;99.90;;;;;;5030236;28;20401;-87
2021/05/09 10:48:16;;;;;;;6.15;2.88;;;15.60;99.90;;;;;;5020021;28;20973;-86
2021/05/09 10:50:48;;;;;;;4.78;2.67;;;15.60;99.90;;;;;;5020231;28;20410;-85
2021/05/09 10:53:33;;;;;;;3.63;2.38;;;15.60;99.90;;;;;;5028530;28;20481;-86
2021/05/09 10:56:16;;;;;;;4.13;2.28;;;15.60;99.90;;;;;;5012367;28;20410;-86
2021/05/09 10:58:48;;;;;;;5.97;2.40;;;15.50;99.90;;;;;;5018990;28;20402;-87
2021/05/09 11:01:21;;;;;;;2.75;2.42;;;15.50;99.90;;;;;;5003197;28;20405;-85
2021/05/09 11:03:53;;;;;;;5.10;2.58;;;15.50;99.90;;;;;;5026183;28;20444;-85
2021/05/09 11:06:24;;;;;;;5.40;2.70;;;15.50;99.90;;;;;;5024724;28;20397;-85
2021/05/09 11:09:01;;;;;;;3.78;2.60;;;15.50;99.90;;;;;;5028644;28;20476;-86
2021/05/09 11:11:31;;;;;;;4.95;2.60;;;15.50;99.90;;;;;;5014637;28;20421;-86
2021/05/09 11:14:02;;;;;;;3.53;2.40;;;15.50;99.90;;;;;;5019552;28;20395;-86
2021/05/09 11:16:34;;;;;;;4.18;2.17;;;15.50;99.90;;;;;;5004541;28;20412;-86
2021/05/09 11:19:06;;;;;;;4.60;2.00;;;15.50;99.90;;;;;;5010888;28;20402;-86
2021/05/09 11:21:38;;;;;;;4.88;1.85;;;15.50;99.90;;;;;;5011840;28;20403;-86
2021/05/09 11:24:08;;;;;;;4.30;1.85;;;15.40;99.90;;;;;;5020393;28;20448;-85
2021/05/09 11:26:40;;;;;;;3.97;2.53;;;15.40;99.90;;;;;;5011767;28;20474;-86
2021/05/09 11:29:11;;;;;;;4.00;2.15;;;15.40;99.90;;;;;;5009387;28;20486;-86
2021/05/09 11:31:41;;;;;;;3.47;2.17;;;15.40;99.90;;;;;;5012840;28;20392;-86
2021/05/09 11:34:08;;;;;;;2.88;1.70;;;15.40;99.90;;;;;;5009925;28;20455;-86
2021/05/09 11:36:37;;;;;;;2.33;1.97;;;15.30;99.90;;;;;;5011621;28;20459;-86
2021/05/09 11:39:40;;;;;;;3.13;1.98;;;15.30;99.90;;;;;;4997944;28;20424;-86
2021/05/09 11:42:12;;;;;;;5.22;2.40;;;15.20;99.90;;;;;;4984669;28;20374;-86
2021/05/09 11:44:47;;;;;;;5.75;2.40;;;15.20;99.90;;;;;;5010576;28;20390;-86
2021/05/09 11:47:23;;;;;;;8.40;4.18;;;15.20;99.90;;;;;;5007866;28;20492;-86
2021/05/09 11:49:51;;;;;;;7.50;3.10;;;15.20;99.90;;;;;;4998425;28;20393;-86
2021/05/09 11:52:27;;;;;;;2.57;2.27;;;15.20;99.90;;;;;;5001226;28;20398;-86
2021/05/09 11:54:57;;;;;;;4.72;2.00;;;15.20;99.90;;;;;;5023696;28;20389;-85
2021/05/09 11:57:27;;;;;;;3.38;1.92;;;15.20;99.90;;;;;;5028701;28;20397;-87
2021/05/09 11:59:57;;;;;;;4.67;1.90;;;15.20;99.90;;;;;;5024371;28;20438;-85
2021/05/09 12:02:28;;;;;;;4.45;1.83;;;15.20;99.90;;;;;;5002738;28;20455;-86
2021/05/09 12:04:56;;;;;;;3.00;1.20;;;15.20;99.90;;;;;;5022546;28;20392;-86
2021/05/09 12:07:26;;;;;;;5.30;1.75;;;15.20;99.90;;;;;;5003808;28;20423;-85
2021/05/09 12:10:00;;;;;;;4.07;1.88;;;15.20;99.90;;;;;;5024196;28;20463;-85
2021/05/09 12:12:30;;;;;;;4.35;1.80;;;15.20;99.90;;;;;;5001495;28;20395;-86
2021/05/09 12:15:07;;;;;;;4.07;2.00;;;15.20;99.90;;;;;;5027347;28;20401;-85
2021/05/09 12:17:34;;;;;;;6.28;1.95;;;15.20;99.90;;;;;;5014362;28;20507;-87
2021/05/09 12:20:02;;;;;;;4.82;2.03;;;15.10;99.90;;;;;;5027829;28;20407;-86
2021/05/09 12:22:39;;;;;;;4.15;2.10;;;15.00;99.90;;;;;;5021918;28;20398;-87
2021/05/09 12:25:07;;;;;;;3.90;2.20;;;14.90;99.90;;;;;;5007076;28;20410;-87
2021/05/09 12:27:45;;;;;;;3.30;2.30;;;14.80;99.90;;;;;;5023308;28;20476;-88
2021/05/09 12:30:17;;;;;;;5.68;2.30;;;14.70;99.90;;;;;;5029335;28;20449;-88
2021/05/09 12:32:44;;;;;;;5.47;2.53;;;14.60;99.90;;;;;;5019004;28;20396;-86
2021/05/09 12:35:17;;;;;;;3.50;2.28;;;14.50;99.90;;;;;;5015590;28;20410;-87
2021/05/09 12:37:49;;;;;;;4.80;2.50;;;14.40;99.90;;;;;;5033083;28;20389;-88
2021/05/09 12:40:32;;;;;;;4.03;2.08;;;14.30;99.90;;;;;;5033556;28;20438;-85
2021/05/09 12:43:04;;;;;;;3.65;2.10;;;14.30;99.90;;;;;;5022989;28;20398;-86
2021/05/09 12:45:50;;;;;;;5.00;2.17;;;14.20;99.90;;;;;;5028142;28;20574;-86
2021/05/09 12:48:29;;;;;;;4.80;2.38;;;14.20;99.90;;;;;;5011953;28;20924;-86
2021/05/09 12:51:04;;;;;;;4.55;2.20;;;14.10;99.90;;;;;;5024886;28;20522;-87
2021/05/09 12:53:49;;;;;;;2.73;1.80;;;14.10;99.90;;;;;;5018219;28;20407;-87
2021/05/09 12:56:30;;;;;;;5.20;2.40;;;14.00;99.90;;;;;;5017511;28;20466;-87
2021/05/09 12:59:01;;;;;;;4.40;2.17;;;14.00;99.90;;;;;;5005217;28;20391;-87
2021/05/09 13:01:29;;;;;;;3.10;1.63;;;14.00;99.90;;;;;;5014845;28;20412;-88
2021/05/09 13:03:57;;;;;;;3.67;1.90;;;14.00;99.90;;;;;;5031492;28;20408;-88